Terminal Aerodrome Forecast
Issued by NWS

Home | Current Version | Previous Version | Text Only | Print | Product List | Glossary On
Versions: 1 2 3 4 5 6 7 8 9 10 11 12
000
FTAK31 PAFA 191734
TAFAFA
TAF
PAFA 191734Z 1918/2024 06004KT P6SM FEW050 SCT100 SCT200
     FM192100 08006KT P6SM FEW050 SCT100
     FM200600 VRB04KT P6SM SKC=

USA.gov is the U.S. government's official web portal to all federal, state and local government web resources and services.